Time;durP1;ratioP1;P1;durP2;ratioP2;P2;SDS_P1;SDS_P2;PMS_P1;PMS_P2;Temp;Humidity;BMP_temperature;BMP_pressure;BME280_temperature;BME280_humidity;BME280_pressure;Samples;Min_cycle;Max_cycle;Signal;HPM_P1;HPM_P2
2022/09/26 00:01:28;;;;;;;7.03;2.40;;;11.60;99.90;;;;;;5113302;27;20046;-90
2022/09/26 00:03:56;;;;;;;5.43;1.70;;;11.60;99.90;;;;;;5095634;28;20171;-90
2022/09/26 00:06:23;;;;;;;10.63;1.90;;;11.50;99.90;;;;;;5113759;28;20047;-90
2022/09/26 00:08:49;;;;;;;4.68;2.13;;;11.60;99.90;;;;;;5096886;28;20035;-90
2022/09/26 00:11:21;;;;;;;6.93;2.17;;;11.60;99.90;;;;;;5120603;28;20768;-90
2022/09/26 00:13:51;;;;;;;5.90;2.05;;;11.60;99.90;;;;;;5096136;28;20122;-90
2022/09/26 00:16:16;;;;;;;4.53;1.70;;;11.60;99.90;;;;;;5112857;28;20043;-90
2022/09/26 00:18:46;;;;;;;5.53;1.70;;;11.60;99.90;;;;;;5113052;28;20039;-90
2022/09/26 00:21:13;;;;;;;7.45;1.90;;;11.60;99.90;;;;;;5112612;27;20039;-90
2022/09/26 00:23:40;;;;;;;7.65;2.40;;;11.60;99.90;;;;;;5106052;28;20039;-90
2022/09/26 00:26:07;;;;;;;7.25;2.10;;;11.60;99.90;;;;;;5113327;28;20096;-90
2022/09/26 00:28:33;;;;;;;4.50;1.77;;;11.60;99.90;;;;;;5118706;27;20407;-90
2022/09/26 00:31:07;;;;;;;4.72;1.90;;;11.60;99.90;;;;;;5133251;27;20071;-90
2022/09/26 00:33:33;;;;;;;7.57;1.80;;;11.60;99.90;;;;;;5134074;27;20437;-90
2022/09/26 00:35:59;;;;;;;4.55;1.63;;;11.60;99.90;;;;;;5137269;27;20546;-90
2022/09/26 00:38:25;;;;;;;5.72;1.70;;;11.70;99.90;;;;;;5137631;27;20031;-89
2022/09/26 00:40:50;;;;;;;5.78;1.75;;;11.60;99.90;;;;;;5130559;27;20080;-90
2022/09/26 00:43:31;;;;;;;7.00;2.03;;;11.60;99.90;;;;;;5117063;27;20043;-90
2022/09/26 00:46:29;;;;;;;12.18;2.10;;;11.60;99.90;;;;;;5100302;27;20535;-89
2022/09/26 00:49:07;;;;;;;6.78;1.85;;;11.60;99.90;;;;;;5113765;27;20557;-90
2022/09/26 00:51:36;;;;;;;6.88;2.20;;;11.60;99.90;;;;;;5115940;27;20524;-90
2022/09/26 00:54:02;;;;;;;6.35;1.70;;;11.60;99.90;;;;;;5124215;27;20042;-90
2022/09/26 00:56:34;;;;;;;5.25;2.10;;;11.60;99.90;;;;;;5115818;27;20553;-90
2022/09/26 00:59:25;;;;;;;5.22;1.85;;;11.60;99.90;;;;;;5121228;27;20039;-90
2022/09/26 01:01:54;;;;;;;5.35;2.78;;;11.60;99.90;;;;;;5115644;27;20039;-90
2022/09/26 01:04:22;;;;;;;4.47;1.80;;;11.60;99.90;;;;;;5134019;27;20043;-89
2022/09/26 01:06:48;;;;;;;7.75;2.13;;;11.50;99.90;;;;;;5116559;27;20039;-90
2022/09/26 01:09:15;;;;;;;8.85;2.08;;;11.60;99.90;;;;;;5116717;27;20050;-89
2022/09/26 01:11:42;;;;;;;7.20;2.00;;;11.60;99.90;;;;;;5098103;27;20081;-90
2022/09/26 01:14:11;;;;;;;8.38;2.10;;;11.60;99.90;;;;;;5115774;27;20516;-90
2022/09/26 01:16:41;;;;;;;5.82;1.77;;;11.50;99.90;;;;;;5098875;27;20431;-89
2022/09/26 01:19:18;;;;;;;5.13;1.90;;;11.60;99.90;;;;;;5114472;27;20511;-89
2022/09/26 01:21:55;;;;;;;6.68;2.22;;;11.50;99.90;;;;;;5116130;27;20035;-90
2022/09/26 01:24:46;;;;;;;5.57;2.45;;;11.50;99.90;;;;;;5116125;27;20043;-90
2022/09/26 01:27:54;;;;;;;6.60;2.55;;;11.60;99.90;;;;;;5116230;27;20031;-90
2022/09/26 01:30:22;;;;;;;7.63;2.22;;;11.50;99.90;;;;;;5067125;28;20045;-90
2022/09/26 01:33:05;;;;;;;7.03;2.00;;;11.50;99.90;;;;;;5032647;28;20056;-90
2022/09/26 01:35:55;;;;;;;6.10;1.98;;;11.60;99.90;;;;;;5054876;28;20126;-90
2022/09/26 01:39:01;;;;;;;7.60;2.53;;;11.50;99.90;;;;;;5033691;28;20140;-89
2022/09/26 01:41:44;;;;;;;8.18;2.28;;;11.50;99.90;;;;;;5061954;28;20088;-90
2022/09/26 01:44:24;;;;;;;8.02;2.53;;;11.50;99.90;;;;;;5057810;28;20055;-90
2022/09/26 01:46:54;;;;;;;11.32;2.70;;;11.50;99.90;;;;;;5073026;28;20413;-90
2022/09/26 01:49:30;;;;;;;10.43;2.92;;;11.50;99.90;;;;;;5059950;28;20044;-89
2022/09/26 01:52:14;;;;;;;5.63;2.78;;;11.50;99.90;;;;;;5053460;28;20048;-90
2022/09/26 01:54:55;;;;;;;7.60;2.65;;;11.50;99.90;;;;;;5049489;28;20041;-89
2022/09/26 01:57:38;;;;;;;7.57;2.53;;;11.50;99.90;;;;;;5033689;28;20056;-90
2022/09/26 02:00:06;;;;;;;6.18;2.35;;;11.50;99.90;;;;;;5041718;28;20037;-90
2022/09/26 02:02:37;;;;;;;7.38;2.70;;;11.40;99.90;;;;;;5052686;28;20063;-89
2022/09/26 02:05:09;;;;;;;7.63;2.35;;;11.40;99.90;;;;;;5105594;27;20043;-90
2022/09/26 02:07:50;;;;;;;8.00;2.75;;;11.40;99.90;;;;;;5113643;27;20063;-89
2022/09/26 02:10:23;;;;;;;6.53;2.75;;;11.40;99.90;;;;;;5113575;27;20038;-90
2022/09/26 02:12:55;;;;;;;5.97;2.30;;;11.40;99.90;;;;;;5113002;27;20043;-90
2022/09/26 02:15:24;;;;;;;8.55;2.55;;;11.40;99.90;;;;;;5113603;27;20047;-90
2022/09/26 02:17:57;;;;;;;7.80;2.65;;;11.40;99.90;;;;;;5115202;27;20049;-90
2022/09/26 02:20:26;;;;;;;;;;;11.50;99.90;;;;;;5115908;27;20054;-90
2022/09/26 02:22:51;;;;;;;9.68;2.50;;;11.50;99.90;;;;;;5097324;27;19940;-90
2022/09/26 02:25:17;;;;;;;10.23;3.10;;;11.50;99.90;;;;;;5115339;27;20035;-90
2022/09/26 02:27:43;;;;;;;8.18;2.72;;;11.50;99.90;;;;;;5114884;27;20046;-90
2022/09/26 02:30:09;;;;;;;9.27;3.58;;;11.50;99.90;;;;;;5114372;27;20053;-90
2022/09/26 02:32:36;;;;;;;8.40;2.70;;;11.50;99.90;;;;;;5114700;27;20042;-90
2022/09/26 02:37:48;;;;;;;8.25;2.90;;;11.50;99.90;;;;;;5114855;27;20047;-90
2022/09/26 02:40:14;;;;;;;9.57;3.25;;;11.60;99.90;;;;;;5114531;27;20165;-90
2022/09/26 02:42:50;;;;;;;10.77;3.67;;;11.60;99.90;;;;;;5097135;27;20035;-89
2022/09/26 02:45:31;;;;;;;9.25;3.38;;;11.60;99.90;;;;;;5115063;27;20046;-90
2022/09/26 02:48:07;;;;;;;7.97;2.97;;;11.60;99.90;;;;;;5114183;27;20066;-90
2022/09/26 02:51:01;;;;;;;8.98;3.17;;;11.60;99.90;;;;;;5114511;27;20471;-90
2022/09/26 02:53:59;;;;;;;9.52;3.40;;;11.60;99.90;;;;;;5031708;28;20055;-90
2022/09/26 02:56:44;;;;;;;6.93;2.83;;;11.60;99.90;;;;;;5016052;28;20043;-90
2022/09/26 02:59:28;;;;;;;7.38;2.80;;;11.60;99.90;;;;;;5030834;28;20081;-90
2022/09/26 03:02:22;;;;;;;9.25;3.10;;;11.60;99.90;;;;;;5012484;28;20038;-90
2022/09/26 03:04:49;;;;;;;8.35;2.67;;;11.60;99.90;;;;;;5012593;28;20045;-89
2022/09/26 03:07:23;;;;;;;8.27;3.20;;;11.60;99.90;;;;;;5014514;28;20041;-89
2022/09/26 03:09:51;;;;;;;8.00;3.28;;;11.60;99.90;;;;;;5033105;28;20095;-90
2022/09/26 03:12:18;;;;;;;9.48;2.90;;;11.60;99.90;;;;;;5031342;28;20603;-90
2022/09/26 03:14:46;;;;;;;9.27;3.40;;;11.60;99.90;;;;;;5015875;28;20179;-90
2022/09/26 03:17:15;;;;;;;8.02;3.30;;;11.60;99.90;;;;;;5031985;28;20053;-90
2022/09/26 03:19:51;;;;;;;9.23;3.65;;;11.60;99.90;;;;;;5031339;28;20068;-89
2022/09/26 03:22:17;;;;;;;8.48;3.35;;;11.60;99.90;;;;;;5015282;28;20049;-89
2022/09/26 03:24:43;;;;;;;11.20;3.75;;;11.60;99.90;;;;;;5028149;28;20080;-90
2022/09/26 03:27:11;;;;;;;9.18;3.70;;;11.60;99.90;;;;;;5009498;28;20419;-89
2022/09/26 03:29:37;;;;;;;13.35;4.10;;;11.60;99.90;;;;;;5054351;27;20054;-89
2022/09/26 03:32:04;;;;;;;10.20;4.07;;;11.60;99.90;;;;;;5126603;27;20042;-90
2022/09/26 03:34:29;;;;;;;7.35;3.30;;;11.60;99.90;;;;;;5133916;27;20055;-90
2022/09/26 03:36:55;;;;;;;10.00;3.83;;;11.60;99.90;;;;;;5134393;27;20122;-90
2022/09/26 03:39:21;;;;;;;7.93;3.67;;;11.60;99.90;;;;;;5133741;27;20030;-89
2022/09/26 03:41:46;;;;;;;11.23;3.92;;;11.60;99.90;;;;;;5133945;27;20066;-90
2022/09/26 03:44:12;;;;;;;8.68;3.97;;;11.50;99.90;;;;;;5102370;27;20035;-89
2022/09/26 03:46:38;;;;;;;9.30;4.05;;;11.50;99.90;;;;;;5112606;27;20043;-89
2022/09/26 03:49:03;;;;;;;8.77;3.63;;;11.50;99.90;;;;;;5113301;27;20051;-89
2022/09/26 03:51:29;;;;;;;8.85;3.88;;;11.50;99.90;;;;;;5094254;27;20031;-89
2022/09/26 03:53:55;;;;;;;8.10;3.67;;;11.50;99.90;;;;;;5096019;28;20493;-89
2022/09/26 03:56:21;;;;;;;10.32;4.45;;;11.50;99.90;;;;;;5113552;28;20393;-90
2022/09/26 03:58:50;;;;;;;9.05;4.75;;;11.50;99.90;;;;;;5113991;28;20398;-89
2022/09/26 04:01:18;;;;;;;9.00;3.97;;;11.50;99.90;;;;;;5095701;27;20046;-89
2022/09/26 04:03:45;;;;;;;12.05;4.35;;;11.50;99.90;;;;;;5113141;28;20040;-90
2022/09/26 04:06:12;;;;;;;10.13;4.43;;;11.50;99.90;;;;;;5112713;27;20102;-90
2022/09/26 04:08:40;;;;;;;10.95;5.13;;;11.40;99.90;;;;;;5125256;27;20556;-89
2022/09/26 04:11:11;;;;;;;13.10;4.68;;;11.40;99.90;;;;;;5133454;27;20034;-90
2022/09/26 04:13:38;;;;;;;10.18;5.07;;;11.40;99.90;;;;;;5115202;28;20035;-90
2022/09/26 04:16:05;;;;;;;10.93;5.22;;;11.40;99.90;;;;;;5113021;28;20046;-90
2022/09/26 04:18:31;;;;;;;13.00;6.03;;;11.40;99.90;;;;;;5112627;28;20087;-90
2022/09/26 04:21:08;;;;;;;9.80;4.78;;;11.40;99.90;;;;;;5112666;28;20031;-90
2022/09/26 04:23:36;;;;;;;14.80;5.43;;;11.40;99.90;;;;;;5096171;27;20559;-89
2022/09/26 04:26:07;;;;;;;11.05;5.32;;;11.40;99.90;;;;;;5113256;28;20039;-90
2022/09/26 04:28:34;;;;;;;11.80;5.45;;;11.40;99.90;;;;;;5112515;28;20070;-89
2022/09/26 04:31:01;;;;;;;12.75;6.22;;;11.40;99.90;;;;;;5112316;28;20046;-89
2022/09/26 04:33:27;;;;;;;11.80;5.50;;;11.40;99.90;;;;;;5113229;28;20435;-89
2022/09/26 04:35:53;;;;;;;11.20;5.57;;;11.40;99.90;;;;;;5112636;28;20068;-90
2022/09/26 04:38:18;;;;;;;10.60;5.78;;;11.40;99.90;;;;;;5113015;28;20088;-89
2022/09/26 04:40:44;;;;;;;13.68;6.47;;;11.40;99.90;;;;;;5096218;28;20513;-88
2022/09/26 04:43:10;;;;;;;14.13;6.28;;;11.40;99.90;;;;;;5101618;27;20510;-89
2022/09/26 04:45:39;;;;;;;10.88;5.85;;;11.40;99.90;;;;;;5095893;28;20116;-89
2022/09/26 04:48:06;;;;;;;11.60;5.78;;;11.40;99.90;;;;;;5112981;27;20047;-89
2022/09/26 04:50:32;;;;;;;13.23;6.10;;;11.30;99.90;;;;;;5113278;28;20433;-89
2022/09/26 04:53:00;;;;;;;11.85;5.60;;;11.40;99.90;;;;;;5094906;28;20047;-89
2022/09/26 04:55:25;;;;;;;11.60;6.15;;;11.30;99.90;;;;;;5095587;28;20027;-89
2022/09/26 04:57:51;;;;;;;11.82;6.18;;;11.40;99.90;;;;;;5112597;28;20043;-90
2022/09/26 05:00:17;;;;;;;13.63;5.95;;;11.30;99.90;;;;;;5094382;27;20036;-89
2022/09/26 05:02:46;;;;;;;13.15;6.28;;;11.40;99.90;;;;;;5095770;28;20035;-90
2022/09/26 05:05:12;;;;;;;11.77;6.35;;;11.30;99.90;;;;;;5112961;28;20495;-89
2022/09/26 05:07:41;;;;;;;11.88;5.60;;;11.40;99.90;;;;;;5095411;28;20045;-89
2022/09/26 05:10:09;;;;;;;13.50;5.60;;;11.30;99.90;;;;;;5096223;28;20488;-89
2022/09/26 05:12:38;;;;;;;11.05;5.95;;;11.30;99.90;;;;;;5111885;28;20066;-89
2022/09/26 05:15:08;;;;;;;11.25;5.60;;;11.30;99.90;;;;;;5112220;28;20488;-89
2022/09/26 05:17:37;;;;;;;12.02;5.40;;;11.30;99.90;;;;;;5095895;28;20043;-89
2022/09/26 05:20:08;;;;;;;10.52;5.60;;;11.30;99.90;;;;;;5112902;28;20046;-89
2022/09/26 05:22:34;;;;;;;11.45;6.07;;;11.30;99.90;;;;;;5098326;27;20042;-89
2022/09/26 05:27:45;;;;;;;9.93;5.05;;;11.30;99.90;;;;;;5116086;27;20043;-89
2022/09/26 05:30:11;;;;;;;9.70;5.10;;;11.30;99.90;;;;;;5115844;27;20435;-89
2022/09/26 05:32:38;;;;;;;12.05;6.07;;;11.30;99.90;;;;;;5115510;27;20556;-89
2022/09/26 05:35:04;;;;;;;10.98;5.45;;;11.30;99.90;;;;;;5115592;27;20494;-89
2022/09/26 05:37:30;;;;;;;10.75;5.38;;;11.30;99.90;;;;;;5116396;27;20042;-89
2022/09/26 05:42:40;;;;;;;11.48;5.18;;;11.30;99.90;;;;;;5115485;27;20067;-89
2022/09/26 05:45:06;;;;;;;11.15;5.43;;;11.30;99.90;;;;;;5116410;27;20492;-89
2022/09/26 05:47:35;;;;;;;10.98;5.38;;;11.30;99.90;;;;;;5104008;27;20377;-89
2022/09/26 05:50:11;;;;;;;12.05;5.90;;;11.30;99.90;;;;;;5132773;27;20134;-89
2022/09/26 05:52:36;;;;;;;9.30;4.55;;;11.30;99.90;;;;;;5115333;27;20138;-90
2022/09/26 05:55:02;;;;;;;11.13;5.03;;;11.20;99.90;;;;;;5123693;27;20129;-89
2022/09/26 05:57:28;;;;;;;10.10;5.03;;;11.30;99.90;;;;;;5115409;27;20036;-89
2022/09/26 05:59:53;;;;;;;10.25;4.65;;;11.30;99.90;;;;;;5115265;27;20037;-90
2022/09/26 06:02:19;;;;;;;12.13;5.25;;;11.30;99.90;;;;;;5098227;27;20031;-89
2022/09/26 06:04:44;;;;;;;10.98;4.45;;;11.20;99.90;;;;;;5098615;27;20095;-89
2022/09/26 06:07:11;;;;;;;10.30;4.53;;;11.30;99.90;;;;;;5115114;27;20042;-89
2022/09/26 06:09:37;;;;;;;10.63;4.13;;;11.30;99.90;;;;;;5115785;27;20039;-89
2022/09/26 06:12:03;;;;;;;10.25;4.50;;;11.20;99.90;;;;;;5115264;27;20050;-89
2022/09/26 06:14:28;;;;;;;11.30;4.25;;;11.20;99.90;;;;;;5097138;27;20035;-89
2022/09/26 06:16:54;;;;;;;8.50;4.38;;;11.20;99.90;;;;;;5114836;27;20039;-88
2022/09/26 06:19:19;;;;;;;12.30;4.70;;;11.20;99.90;;;;;;5114218;27;20065;-89
2022/09/26 06:21:45;;;;;;;10.07;4.50;;;11.30;99.90;;;;;;5114361;27;20150;-89
2022/09/26 06:24:11;;;;;;;11.98;4.60;;;11.20;99.90;;;;;;5097756;27;20039;-88
2022/09/26 06:26:37;;;;;;;9.82;4.38;;;11.20;99.90;;;;;;5114085;27;20084;-89
2022/09/26 06:29:03;;;;;;;9.88;4.25;;;11.20;99.90;;;;;;5114920;27;20043;-89
2022/09/26 06:31:29;;;;;;;10.25;4.80;;;11.20;99.90;;;;;;5113526;27;20066;-88
2022/09/26 06:33:55;;;;;;;9.48;4.15;;;11.20;99.90;;;;;;5114665;27;20061;-88
2022/09/26 06:36:23;;;;;;;9.02;4.57;;;11.20;99.90;;;;;;5113793;27;20485;-88
2022/09/26 06:38:50;;;;;;;10.60;4.53;;;11.20;99.90;;;;;;5114387;27;20063;-89
2022/09/26 06:41:16;;;;;;;14.98;4.80;;;11.20;99.90;;;;;;5113932;27;20027;-89
2022/09/26 06:43:43;;;;;;;7.35;3.72;;;11.20;99.90;;;;;;5096967;27;20104;-89
2022/09/26 06:46:13;;;;;;;10.63;4.68;;;11.20;99.90;;;;;;5103511;27;20046;-89
2022/09/26 06:48:39;;;;;;;8.68;4.18;;;11.20;99.90;;;;;;5105063;27;20053;-89
2022/09/26 06:51:05;;;;;;;11.35;4.05;;;11.20;99.90;;;;;;5116794;27;20043;-90
2022/09/26 06:53:33;;;;;;;8.40;3.80;;;11.20;99.90;;;;;;5114151;27;20126;-90
2022/09/26 06:55:59;;;;;;;12.13;3.70;;;11.20;99.90;;;;;;5114161;27;20450;-89
2022/09/26 06:58:25;;;;;;;7.50;2.85;;;11.20;99.90;;;;;;5096199;27;20043;-90
2022/09/26 07:00:50;;;;;;;7.75;3.03;;;11.20;99.90;;;;;;5113639;27;20023;-90
2022/09/26 07:03:16;;;;;;;8.13;3.22;;;11.20;99.90;;;;;;5114185;27;20046;-89
2022/09/26 07:05:44;;;;;;;7.75;2.85;;;11.30;99.90;;;;;;5100087;27;20035;-89
2022/09/26 07:08:10;;;;;;;10.48;3.53;;;11.30;99.90;;;;;;5113757;27;20084;-90
2022/09/26 07:10:36;;;;;;;10.48;3.30;;;11.30;99.90;;;;;;5114362;27;20039;-90
2022/09/26 07:13:04;;;;;;;8.98;2.72;;;11.30;99.90;;;;;;5110527;27;20043;-89
2022/09/26 07:15:32;;;;;;;6.50;2.78;;;11.30;99.90;;;;;;5096248;27;20533;-90
2022/09/26 07:18:01;;;;;;;7.00;2.90;;;11.30;99.90;;;;;;5095278;27;20167;-89
2022/09/26 07:20:30;;;;;;;8.40;2.80;;;11.30;99.90;;;;;;5112425;27;20054;-89
2022/09/26 07:22:58;;;;;;;7.47;2.85;;;11.40;99.90;;;;;;5112148;27;20035;-89
2022/09/26 07:25:24;;;;;;;6.50;2.50;;;11.30;99.90;;;;;;5096007;27;20039;-89
2022/09/26 07:27:51;;;;;;;8.70;2.83;;;11.40;99.90;;;;;;5112639;27;20605;-89
2022/09/26 07:30:18;;;;;;;9.30;3.08;;;11.40;99.90;;;;;;5112325;27;20404;-90
2022/09/26 07:32:45;;;;;;;8.27;2.63;;;11.40;99.90;;;;;;5112716;27;20130;-90
2022/09/26 07:35:11;;;;;;;5.88;2.50;;;11.40;99.90;;;;;;5112339;27;20050;-89
2022/09/26 07:37:36;;;;;;;8.32;3.17;;;11.40;99.90;;;;;;5112905;27;20031;-90
2022/09/26 07:40:02;;;;;;;6.63;2.83;;;11.40;99.90;;;;;;5112671;27;20457;-90
2022/09/26 07:42:28;;;;;;;7.30;2.70;;;11.40;99.90;;;;;;5103589;27;20075;-90
2022/09/26 07:44:53;;;;;;;8.68;3.15;;;11.40;99.90;;;;;;5112343;27;20126;-90
2022/09/26 07:50:15;;;;;;;8.23;3.20;;;11.40;99.90;;;;;;5112339;27;20563;-90
2022/09/26 07:52:43;;;;;;;5.53;2.72;;;11.40;99.90;;;;;;5112316;27;20470;-90
2022/09/26 07:55:10;;;;;;;8.20;2.78;;;11.40;99.90;;;;;;5112575;27;20035;-89
2022/09/26 07:57:35;;;;;;;9.45;2.90;;;11.40;99.90;;;;;;5111790;27;20038;-89
2022/09/26 08:00:04;;;;;;;7.30;2.58;;;11.40;99.90;;;;;;5111836;27;20042;-89
2022/09/26 08:02:33;;;;;;;10.23;3.10;;;11.40;99.90;;;;;;5112232;27;20062;-89
2022/09/26 08:04:59;;;;;;;6.60;3.03;;;11.40;99.90;;;;;;5095480;27;20468;-89
2022/09/26 08:07:24;;;;;;;8.88;3.17;;;11.30;99.90;;;;;;5111793;28;20487;-90
2022/09/26 08:09:53;;;;;;;7.78;3.17;;;11.30;99.90;;;;;;5096117;28;20067;-89
2022/09/26 08:12:19;;;;;;;10.07;3.80;;;11.30;99.90;;;;;;5111479;28;20065;-90
2022/09/26 08:14:48;;;;;;;7.45;2.80;;;11.30;99.90;;;;;;5112225;28;20050;-90
2022/09/26 08:17:18;;;;;;;7.00;2.60;;;11.30;99.90;;;;;;5111934;27;20039;-89
2022/09/26 08:19:43;;;;;;;7.55;3.13;;;11.30;99.90;;;;;;5116486;27;20032;-89
2022/09/26 08:22:10;;;;;;;10.27;3.78;;;11.40;99.90;;;;;;5114781;28;20095;-89
2022/09/26 08:24:36;;;;;;;8.15;3.75;;;11.40;99.90;;;;;;5112468;28;20073;-90
2022/09/26 08:27:01;;;;;;;8.15;2.90;;;11.40;99.90;;;;;;5111760;28;20395;-89
2022/09/26 08:29:31;;;;;;;6.95;2.72;;;11.50;99.90;;;;;;5113180;28;20129;-90
2022/09/26 08:31:57;;;;;;;8.40;2.85;;;11.50;99.90;;;;;;5111988;28;20039;-90
2022/09/26 08:34:23;;;;;;;9.23;3.15;;;11.60;99.90;;;;;;5111473;28;20412;-90
2022/09/26 08:36:53;;;;;;;9.80;3.80;;;11.70;99.90;;;;;;5111446;28;20034;-90
2022/09/26 08:39:22;;;;;;;9.63;3.22;;;11.70;99.90;;;;;;5095683;28;20107;-90
2022/09/26 08:42:06;;;;;;;8.93;3.28;;;11.80;99.90;;;;;;5111443;28;20039;-90
2022/09/26 08:44:53;;;;;;;10.07;3.13;;;11.80;99.90;;;;;;5112530;28;20101;-90
2022/09/26 08:48:02;;;;;;;9.23;2.97;;;11.80;99.90;;;;;;5112238;28;20043;-90
2022/09/26 08:50:31;;;;;;;6.78;2.97;;;11.80;99.90;;;;;;5027196;28;20485;-90
2022/09/26 08:53:05;;;;;;;9.15;3.20;;;11.90;99.90;;;;;;5011161;28;20526;-90
2022/09/26 08:55:38;;;;;;;7.30;2.83;;;11.90;99.90;;;;;;5015285;28;20477;-90
2022/09/26 08:58:19;;;;;;;9.40;2.72;;;11.90;99.90;;;;;;5017445;28;20139;-90
2022/09/26 09:00:50;;;;;;;10.38;3.45;;;11.90;99.90;;;;;;5016762;28;20040;-90
2022/09/26 09:03:30;;;;;;;7.55;3.08;;;11.90;99.90;;;;;;5033423;28;20743;-90
2022/09/26 09:06:04;;;;;;;12.13;4.38;;;11.90;99.90;;;;;;5031200;28;20053;-89
2022/09/26 09:08:35;;;;;;;7.60;2.78;;;12.00;99.90;;;;;;5013936;28;20128;-89
2022/09/26 09:11:14;;;;;;;9.25;3.15;;;12.00;99.90;;;;;;5014125;28;20057;-90
2022/09/26 09:14:01;;;;;;;9.32;2.85;;;12.00;99.90;;;;;;5022917;28;20153;-89
2022/09/26 09:16:50;;;;;;;12.23;3.22;;;12.00;99.90;;;;;;5013160;28;20041;-90
2022/09/26 09:19:18;;;;;;;7.88;2.60;;;12.00;99.90;;;;;;5029179;28;20538;-90
2022/09/26 09:21:47;;;;;;;12.73;3.58;;;12.10;99.90;;;;;;5014081;28;20063;-89
2022/09/26 09:24:28;;;;;;;9.00;3.15;;;12.10;99.90;;;;;;5059604;27;20450;-90
2022/09/26 09:27:11;;;;;;;8.27;3.08;;;12.10;99.90;;;;;;5114910;27;20046;-90
2022/09/26 09:29:44;;;;;;;;;;;12.10;99.90;;;;;;5115584;27;20446;-89
2022/09/26 09:32:16;;;;;;;9.85;2.83;;;12.20;99.90;;;;;;5115483;27;20416;-90
2022/09/26 09:34:43;;;;;;;7.80;2.67;;;12.20;99.90;;;;;;5098128;27;20507;-90
2022/09/26 09:37:17;;;;;;;7.50;3.70;;;12.20;99.90;;;;;;5114187;27;20041;-90
2022/09/26 09:39:46;;;;;;;8.23;3.17;;;12.20;99.90;;;;;;5115554;27;20035;-90
2022/09/26 09:42:32;;;;;;;8.70;2.72;;;12.20;99.90;;;;;;5114189;27;20059;-90
2022/09/26 09:45:08;;;;;;;10.18;3.03;;;12.20;99.90;;;;;;5115587;27;20046;-90
2022/09/26 09:47:38;;;;;;;9.05;3.53;;;12.20;99.90;;;;;;5096721;27;20078;-89
2022/09/26 09:50:37;;;;;;;11.07;4.55;;;12.20;99.90;;;;;;5114644;27;20531;-90
2022/09/26 09:53:12;;;;;;;9.50;3.00;;;12.20;99.90;;;;;;5082895;27;20100;-90
2022/09/26 09:55:49;;;;;;;9.13;3.17;;;12.20;99.90;;;;;;5114317;27;20117;-90
2022/09/26 09:58:48;;;;;;;6.57;2.78;;;12.10;99.90;;;;;;5114239;27;20480;-90
2022/09/26 10:01:25;;;;;;;9.85;3.08;;;12.10;99.90;;;;;;5097187;27;20122;-90
2022/09/26 10:04:03;;;;;;;10.43;3.10;;;12.10;99.90;;;;;;5113953;27;20047;-90
2022/09/26 10:06:31;;;;;;;7.85;2.85;;;12.10;99.90;;;;;;5113355;27;20511;-89
2022/09/26 10:08:57;;;;;;;9.15;3.17;;;12.10;99.90;;;;;;5114945;27;20400;-90
2022/09/26 10:11:28;;;;;;;10.93;3.38;;;12.10;99.90;;;;;;5113549;27;20492;-90
2022/09/26 10:13:57;;;;;;;8.93;3.17;;;12.10;99.90;;;;;;5114968;27;20122;-89
2022/09/26 10:16:23;;;;;;;7.28;2.92;;;12.10;99.90;;;;;;5113653;27;20043;-90
2022/09/26 10:19:09;;;;;;;9.93;4.82;;;12.10;99.90;;;;;;5096215;27;20055;-90
2022/09/26 10:21:40;;;;;;;7.80;3.03;;;12.10;99.90;;;;;;5097074;27;20058;-90
2022/09/26 10:24:38;;;;;;;9.38;3.63;;;12.10;99.90;;;;;;5113732;27;20118;-90
2022/09/26 10:27:30;;;;;;;7.80;3.42;;;12.10;99.90;;;;;;5097024;27;20069;-90
2022/09/26 10:30:02;;;;;;;8.38;2.83;;;12.10;99.90;;;;;;5114053;27;20039;-89
2022/09/26 10:32:28;;;;;;;11.45;3.15;;;12.00;99.90;;;;;;5112885;27;20553;-90
2022/09/26 10:35:06;;;;;;;11.38;4.35;;;12.00;99.90;;;;;;5113729;27;20039;-90
2022/09/26 10:37:35;;;;;;;12.32;5.72;;;12.00;99.90;;;;;;5126537;27;20506;-89
2022/09/26 10:42:47;;;;;;;8.90;3.58;;;12.10;99.90;;;;;;5121341;27;20070;-90
2022/09/26 10:45:26;;;;;;;10.68;5.55;;;12.10;99.90;;;;;;5115428;27;20468;-90
2022/09/26 10:47:54;;;;;;;10.88;3.17;;;12.10;99.90;;;;;;5111176;27;20479;-90
2022/09/26 10:50:27;;;;;;;8.35;3.88;;;12.10;99.90;;;;;;5114014;27;20042;-90
2022/09/26 10:53:01;;;;;;;;;;;12.10;99.90;;;;;;5095719;27;20027;-90
2022/09/26 10:55:35;;;;;;;6.93;2.95;;;12.10;99.90;;;;;;5113291;27;20268;-90
2022/09/26 10:58:05;;;;;;;7.53;2.92;;;12.10;99.90;;;;;;5096328;27;20084;-89
2022/09/26 11:00:36;;;;;;;8.45;3.60;;;12.10;99.90;;;;;;5113637;27;20043;-89
2022/09/26 11:03:07;;;;;;;9.30;3.85;;;12.20;99.90;;;;;;5095832;27;20408;-90
2022/09/26 11:05:58;;;;;;;8.52;3.60;;;12.20;99.90;;;;;;5113135;27;20491;-89
2022/09/26 11:08:29;;;;;;;11.35;3.72;;;12.20;99.90;;;;;;5112745;27;20031;-89
2022/09/26 11:11:02;;;;;;;9.77;2.70;;;12.20;99.90;;;;;;5112623;27;20050;-89
2022/09/26 11:13:37;;;;;;;12.43;3.92;;;12.10;99.90;;;;;;5113133;27;20039;-89
2022/09/26 11:16:11;;;;;;;8.68;3.78;;;12.10;99.90;;;;;;5113249;27;20043;-90
2022/09/26 11:18:41;;;;;;;10.40;4.05;;;12.10;99.90;;;;;;5095467;27;20114;-89
2022/09/26 11:21:32;;;;;;;8.15;3.58;;;12.10;99.90;;;;;;5113281;27;20116;-89
2022/09/26 11:24:03;;;;;;;8.88;4.22;;;12.10;99.90;;;;;;5113764;27;20045;-89
2022/09/26 11:26:33;;;;;;;10.90;4.25;;;12.00;99.90;;;;;;5096266;27;20042;-89
2022/09/26 11:29:02;;;;;;;8.30;3.75;;;12.00;99.90;;;;;;5113225;27;20043;-90
2022/09/26 11:31:33;;;;;;;12.82;4.43;;;12.00;99.90;;;;;;5095040;27;20099;-89
2022/09/26 11:34:03;;;;;;;11.57;4.18;;;12.00;99.90;;;;;;5113791;27;20039;-89
2022/09/26 11:36:31;;;;;;;10.05;3.47;;;12.00;99.90;;;;;;5096256;28;20078;-89
2022/09/26 11:39:35;;;;;;;10.05;4.43;;;12.10;99.90;;;;;;5113036;27;20039;-89
2022/09/26 11:42:23;;;;;;;8.27;3.55;;;12.10;99.90;;;;;;5067902;27;20046;-89
2022/09/26 11:44:58;;;;;;;9.50;4.00;;;12.10;99.90;;;;;;5097025;27;20038;-89
2022/09/26 11:47:45;;;;;;;10.80;4.53;;;12.10;99.90;;;;;;5095900;27;20043;-89
2022/09/26 11:50:29;;;;;;;9.18;3.95;;;12.10;99.90;;;;;;5113007;27;20039;-89
2022/09/26 11:53:32;;;;;;;9.80;4.38;;;12.10;99.90;;;;;;5113201;27;20529;-89
2022/09/26 11:56:23;;;;;;;7.25;3.20;;;12.10;99.90;;;;;;5126496;27;20071;-90
2022/09/26 11:58:58;;;;;;;7.78;3.35;;;12.10;99.90;;;;;;5113376;27;20100;-89
2022/09/26 12:01:41;;;;;;;7.68;3.40;;;12.10;99.90;;;;;;5121268;27;20456;-89
2022/09/26 12:04:14;;;;;;;7.85;3.38;;;12.20;99.90;;;;;;5113628;27;20051;-89
2022/09/26 12:07:01;;;;;;;;;;;12.20;99.90;;;;;;5113400;28;20069;-89
2022/09/26 12:09:39;;;;;;;7.05;2.70;;;12.20;99.90;;;;;;5113024;28;19975;-89
2022/09/26 12:12:16;;;;;;;8.90;3.20;;;12.20;99.90;;;;;;5096127;28;20096;-90
2022/09/26 12:14:54;;;;;;;9.35;3.00;;;12.30;99.90;;;;;;5112388;28;20088;-89
2022/09/26 12:17:51;;;;;;;7.80;3.63;;;12.30;99.90;;;;;;5112107;28;20521;-89
2022/09/26 12:20:43;;;;;;;8.85;3.25;;;12.30;99.90;;;;;;5112367;27;20039;-89
2022/09/26 12:23:09;;;;;;;8.23;2.40;;;12.30;99.90;;;;;;5095521;28;20091;-89
2022/09/26 12:25:53;;;;;;;6.07;2.53;;;12.30;99.90;;;;;;5112104;27;20280;-88
2022/09/26 12:28:54;;;;;;;6.22;2.03;;;12.30;99.90;;;;;;5112117;28;20031;-89
2022/09/26 12:31:37;;;;;;;6.57;2.55;;;12.30;99.90;;;;;;5091735;27;20039;-89
2022/09/26 12:34:36;;;;;;;7.57;3.80;;;12.30;99.90;;;;;;5117171;27;20043;-89
2022/09/26 12:37:01;;;;;;;5.85;2.47;;;12.30;99.90;;;;;;5115988;27;20031;-89
2022/09/26 12:39:56;;;;;;;6.45;2.38;;;12.30;99.90;;;;;;5116227;27;20027;-89
2022/09/26 12:42:24;;;;;;;4.95;2.08;;;12.30;99.90;;;;;;5099769;27;20047;-89
2022/09/26 12:45:06;;;;;;;8.00;2.40;;;12.30;99.90;;;;;;5116663;27;20047;-89
2022/09/26 12:48:06;;;;;;;5.97;2.03;;;12.30;99.90;;;;;;5116155;27;20087;-89
2022/09/26 12:50:46;;;;;;;7.95;2.60;;;12.30;99.90;;;;;;5124062;27;20118;-89
2022/09/26 12:53:50;;;;;;;5.60;2.20;;;12.30;99.90;;;;;;5114386;27;20110;-88
2022/09/26 12:56:45;;;;;;;5.93;2.20;;;12.30;99.90;;;;;;5110330;27;20054;-88
2022/09/26 12:59:36;;;;;;;5.45;2.20;;;12.30;99.90;;;;;;5115671;27;20393;-89
2022/09/26 13:02:23;;;;;;;5.95;2.17;;;12.30;99.90;;;;;;5114535;27;20047;-89
2022/09/26 13:05:12;;;;;;;6.32;2.05;;;12.40;99.90;;;;;;5116251;27;20073;-88
2022/09/26 13:07:56;;;;;;;5.75;2.22;;;12.40;99.90;;;;;;5098299;27;20066;-89
2022/09/26 13:10:35;;;;;;;6.50;2.13;;;12.40;99.90;;;;;;5116066;27;20049;-88
2022/09/26 13:13:16;;;;;;;3.97;1.95;;;12.40;99.90;;;;;;5116080;27;20122;-89
2022/09/26 13:15:56;;;;;;;5.35;1.90;;;12.40;99.90;;;;;;5097964;27;20081;-88
2022/09/26 13:18:36;;;;;;;5.10;2.00;;;12.40;99.90;;;;;;5134037;27;20035;-89
2022/09/26 13:21:07;;;;;;;6.90;2.15;;;12.40;99.90;;;;;;5108921;27;20074;-89
2022/09/26 13:23:57;;;;;;;5.32;2.03;;;12.40;99.90;;;;;;5098580;27;20524;-89
2022/09/26 13:26:27;;;;;;;4.95;1.90;;;12.40;99.90;;;;;;5106885;27;20027;-89
2022/09/26 13:29:09;;;;;;;4.78;1.90;;;12.40;99.90;;;;;;5115629;27;20500;-89